Time;durP1;ratioP1;P1;durP2;ratioP2;P2;SDS_P1;SDS_P2;PMS_P1;PMS_P2;Temp;Humidity;BMP_temperature;BMP_pressure;BME280_temperature;BME280_humidity;BME280_pressure;Samples;Min_cycle;Max_cycle;Signal;HPM_P1;HPM_P2
2021/10/20 00:01:02;;;;;;;5.60;4.55;;;17.90;69.30;;;;;;4987280;28;20046;-85
2021/10/20 00:03:29;;;;;;;4.88;4.68;;;17.90;69.40;;;;;;5012142;28;20046;-84
2021/10/20 00:05:57;;;;;;;5.10;4.90;;;17.90;69.40;;;;;;4987383;28;20395;-85
2021/10/20 00:08:23;;;;;;;5.32;5.13;;;17.90;69.40;;;;;;5021586;28;20468;-85
2021/10/20 00:10:49;;;;;;;5.07;4.88;;;17.90;69.40;;;;;;4972771;28;20045;-85
2021/10/20 00:13:16;;;;;;;6.07;5.68;;;17.90;69.50;;;;;;5020420;28;20038;-85
2021/10/20 00:15:42;;;;;;;5.15;4.85;;;17.90;69.50;;;;;;4986617;28;20030;-84
2021/10/20 00:18:08;;;;;;;5.85;5.47;;;17.90;69.60;;;;;;5019311;28;20468;-85
2021/10/20 00:20:34;;;;;;;5.30;5.10;;;17.90;69.70;;;;;;5001035;28;20026;-85
2021/10/20 00:23:00;;;;;;;5.35;4.95;;;17.80;69.70;;;;;;5003339;28;20038;-85
2021/10/20 00:25:26;;;;;;;5.45;5.15;;;17.80;69.70;;;;;;4981737;28;20053;-85
2021/10/20 00:27:52;;;;;;;6.03;5.63;;;17.80;69.80;;;;;;5010138;28;20050;-85
2021/10/20 00:30:18;;;;;;;5.35;5.15;;;17.80;69.90;;;;;;4994415;28;20034;-85
2021/10/20 00:32:45;;;;;;;5.07;4.82;;;17.70;69.90;;;;;;5017909;28;20030;-85
2021/10/20 00:35:11;;;;;;;5.45;5.15;;;17.80;70.00;;;;;;5019831;28;20054;-85
2021/10/20 00:37:37;;;;;;;5.20;5.00;;;17.70;70.00;;;;;;4991063;28;20037;-85
2021/10/20 00:40:03;;;;;;;5.20;4.90;;;17.70;70.10;;;;;;4991615;28;20053;-85
2021/10/20 00:42:29;;;;;;;5.75;5.35;;;17.70;70.20;;;;;;4980702;28;20038;-85
2021/10/20 00:44:58;;;;;;;5.40;5.10;;;17.70;70.20;;;;;;4997736;28;20096;-86
2021/10/20 00:47:24;;;;;;;5.30;5.10;;;17.70;70.20;;;;;;4994438;28;20039;-85
2021/10/20 00:49:51;;;;;;;5.38;5.07;;;17.70;70.30;;;;;;5003944;28;20022;-85
2021/10/20 00:52:17;;;;;;;5.22;4.93;;;17.70;70.30;;;;;;5021303;28;20038;-85
2021/10/20 00:54:43;;;;;;;5.10;4.80;;;17.70;70.30;;;;;;4993105;28;20038;-85
2021/10/20 00:57:10;;;;;;;4.60;4.40;;;17.70;70.30;;;;;;4989350;28;20027;-85
2021/10/20 00:59:39;;;;;;;4.68;4.47;;;17.70;70.30;;;;;;4987055;28;20042;-85
2021/10/20 01:02:06;;;;;;;4.93;4.63;;;17.80;70.30;;;;;;5002469;28;20039;-85
2021/10/20 01:04:32;;;;;;;4.65;4.45;;;17.80;70.10;;;;;;4988627;28;20057;-84
2021/10/20 01:06:58;;;;;;;10.00;4.60;;;17.90;70.10;;;;;;4982737;28;20041;-85
2021/10/20 01:09:24;;;;;;;5.57;5.28;;;18.00;70.00;;;;;;4985043;28;20365;-85
2021/10/20 01:11:51;;;;;;;5.03;4.82;;;18.00;69.90;;;;;;4978315;28;20042;-85
2021/10/20 01:14:17;;;;;;;5.53;5.22;;;18.10;69.80;;;;;;4995839;28;20035;-85
2021/10/20 01:16:43;;;;;;;5.65;5.25;;;18.20;69.80;;;;;;5004193;28;20514;-85
2021/10/20 01:19:09;;;;;;;5.10;4.80;;;18.20;69.60;;;;;;4990125;28;20468;-85
2021/10/20 01:21:36;;;;;;;5.18;4.72;;;18.30;69.50;;;;;;4980825;28;20035;-85
2021/10/20 01:24:02;;;;;;;4.95;4.75;;;18.40;69.50;;;;;;5017953;28;20495;-85
2021/10/20 01:26:28;;;;;;;5.22;4.95;;;18.40;69.30;;;;;;5023588;28;20031;-84
2021/10/20 01:28:55;;;;;;;4.97;4.68;;;18.50;69.30;;;;;;4981908;28;20030;-86
2021/10/20 01:31:21;;;;;;;4.78;4.57;;;18.60;69.20;;;;;;5016652;28;20034;-84
2021/10/20 01:33:47;;;;;;;5.45;5.15;;;18.60;69.10;;;;;;4999199;28;21284;-85
2021/10/20 01:36:13;;;;;;;5.30;5.00;;;18.70;69.00;;;;;;4967913;28;20030;-85
2021/10/20 01:38:39;;;;;;;5.35;5.05;;;18.70;68.90;;;;;;4978796;28;20035;-84
2021/10/20 01:41:05;;;;;;;5.00;4.70;;;18.70;69.00;;;;;;4991325;28;20038;-85
2021/10/20 01:43:42;;;;;;;4.82;4.63;;;18.80;69.00;;;;;;4992935;28;20027;-85
2021/10/20 01:46:09;;;;;;;5.22;4.82;;;18.80;68.90;;;;;;4990657;28;20045;-85
2021/10/20 01:48:36;;;;;;;5.50;5.00;;;18.90;68.80;;;;;;4996030;28;20042;-85
2021/10/20 01:51:02;;;;;;;5.55;5.05;;;18.90;68.80;;;;;;4983846;28;20428;-85
2021/10/20 01:53:28;;;;;;;5.43;5.13;;;18.90;68.70;;;;;;5000998;28;20308;-84
2021/10/20 01:55:54;;;;;;;5.43;5.22;;;19.00;68.70;;;;;;5012699;28;20027;-85
2021/10/20 01:58:20;;;;;;;5.43;5.15;;;19.00;68.60;;;;;;5019698;28;20030;-85
2021/10/20 02:00:46;;;;;;;5.30;5.00;;;19.00;68.60;;;;;;4980144;28;20499;-84
2021/10/20 02:03:12;;;;;;;5.10;4.90;;;19.00;68.60;;;;;;4999627;28;20038;-85
2021/10/20 02:05:38;;;;;;;5.05;4.65;;;19.10;68.60;;;;;;4984910;28;20763;-85
2021/10/20 02:08:05;;;;;;;4.93;4.55;;;19.10;68.60;;;;;;5006848;28;20047;-85
2021/10/20 02:10:31;;;;;;;5.35;5.05;;;19.10;68.60;;;;;;4991764;28;20046;-85
2021/10/20 02:12:57;;;;;;;5.40;5.10;;;19.10;68.50;;;;;;4992105;28;20053;-85
2021/10/20 02:15:23;;;;;;;5.30;5.07;;;19.10;68.50;;;;;;4991194;28;20038;-85
2021/10/20 02:17:49;;;;;;;5.35;5.15;;;19.10;68.50;;;;;;4990396;28;20046;-85
2021/10/20 02:20:15;;;;;;;5.60;5.30;;;19.10;68.50;;;;;;4992109;28;20061;-85
2021/10/20 02:22:43;;;;;;;5.82;5.50;;;19.10;68.50;;;;;;4982696;28;20038;-85
2021/10/20 02:25:09;;;;;;;5.05;4.75;;;19.20;68.60;;;;;;4975538;28;20496;-85
2021/10/20 02:27:35;;;;;;;5.53;5.22;;;19.10;68.50;;;;;;4979349;28;20468;-85
2021/10/20 02:30:02;;;;;;;5.15;4.90;;;19.10;68.50;;;;;;5003122;28;20057;-81
2021/10/20 02:32:28;;;;;;;5.60;5.20;;;19.20;68.60;;;;;;4988978;28;20041;-85
2021/10/20 02:34:54;;;;;;;5.03;4.75;;;19.20;68.60;;;;;;4997012;28;20034;-85
2021/10/20 02:37:20;;;;;;;4.60;4.40;;;19.20;68.60;;;;;;4975042;28;20038;-85
2021/10/20 02:39:46;;;;;;;5.40;5.07;;;19.20;68.60;;;;;;4995745;28;20039;-85
2021/10/20 02:42:12;;;;;;;5.05;4.75;;;19.20;68.60;;;;;;4977153;28;20039;-85
2021/10/20 02:44:39;;;;;;;5.35;5.07;;;19.20;68.60;;;;;;4982568;28;20042;-85
2021/10/20 02:47:05;;;;;;;5.00;4.70;;;19.20;68.50;;;;;;4980539;28;20419;-85
2021/10/20 02:49:31;;;;;;;5.80;5.50;;;19.20;68.60;;;;;;5008816;28;20423;-85
2021/10/20 02:51:57;;;;;;;4.78;4.57;;;19.20;68.50;;;;;;4983893;28;20026;-85
2021/10/20 02:54:23;;;;;;;5.18;4.90;;;19.20;69.30;;;;;;4989063;28;20372;-84
2021/10/20 02:56:49;;;;;;;4.95;4.75;;;19.20;68.50;;;;;;4988809;28;20038;-85
2021/10/20 02:59:15;;;;;;;5.10;4.80;;;19.30;68.60;;;;;;4999641;28;20026;-85
2021/10/20 03:01:41;;;;;;;5.22;4.82;;;19.30;68.60;;;;;;4992303;28;20038;-85
2021/10/20 03:04:07;;;;;;;5.40;5.10;;;19.20;68.60;;;;;;4986770;28;20031;-86
2021/10/20 03:06:33;;;;;;;4.88;4.68;;;19.30;68.70;;;;;;4981522;28;20484;-85
2021/10/20 03:09:00;;;;;;;4.90;4.70;;;19.30;68.60;;;;;;4985000;28;20025;-84
2021/10/20 03:11:26;;;;;;;5.18;4.88;;;19.30;68.60;;;;;;4988191;28;20074;-85
2021/10/20 03:13:52;;;;;;;5.05;4.85;;;19.30;68.60;;;;;;5005755;28;20022;-85
2021/10/20 03:16:18;;;;;;;4.90;4.70;;;19.30;68.70;;;;;;5015136;28;20034;-86
2021/10/20 03:18:44;;;;;;;4.90;4.70;;;19.30;68.70;;;;;;5020403;28;20030;-84
2021/10/20 03:21:10;;;;;;;4.93;4.57;;;19.30;68.80;;;;;;4987792;28;20031;-85
2021/10/20 03:23:36;;;;;;;4.50;4.30;;;19.30;68.80;;;;;;4988363;28;20490;-85
2021/10/20 03:26:02;;;;;;;5.00;4.70;;;19.30;68.80;;;;;;4980756;28;20042;-81
2021/10/20 03:28:28;;;;;;;5.38;5.07;;;19.30;68.80;;;;;;5018258;28;20026;-81
2021/10/20 03:30:54;;;;;;;5.78;5.32;;;19.30;68.90;;;;;;4984904;28;20041;-83
2021/10/20 03:33:20;;;;;;;4.82;4.57;;;19.30;68.80;;;;;;4987571;28;20034;-84
2021/10/20 03:35:46;;;;;;;5.07;4.78;;;19.30;68.90;;;;;;4984402;28;20046;-83
2021/10/20 03:38:13;;;;;;;5.18;4.88;;;19.30;68.90;;;;;;5019904;28;20023;-82
2021/10/20 03:40:39;;;;;;;4.80;4.60;;;19.20;68.90;;;;;;5023906;28;20034;-84
2021/10/20 03:43:05;;;;;;;4.75;4.45;;;19.20;69.00;;;;;;4989325;28;20031;-84
2021/10/20 03:45:31;;;;;;;5.32;5.03;;;19.20;68.90;;;;;;5013123;28;20058;-84
2021/10/20 03:47:57;;;;;;;5.22;4.93;;;19.20;69.00;;;;;;4987883;28;20031;-84
2021/10/20 03:50:23;;;;;;;5.13;4.82;;;19.20;69.00;;;;;;5019449;28;20050;-83
2021/10/20 03:52:49;;;;;;;5.28;4.97;;;19.20;69.10;;;;;;5007922;28;20034;-84
2021/10/20 03:55:15;;;;;;;4.82;4.57;;;19.20;69.10;;;;;;4979844;28;20388;-84
2021/10/20 03:57:42;;;;;;;4.63;4.43;;;19.30;69.20;;;;;;4988522;28;20042;-84
2021/10/20 04:00:12;;;;;;;5.15;4.90;;;19.20;69.10;;;;;;5002394;28;20049;-84
2021/10/20 04:02:43;;;;;;;4.65;4.45;;;19.30;69.20;;;;;;5019724;28;20042;-84
2021/10/20 04:05:10;;;;;;;4.80;4.60;;;19.20;69.10;;;;;;4993517;28;20037;-84
2021/10/20 04:07:38;;;;;;;4.70;4.50;;;19.30;69.30;;;;;;4975728;28;20269;-84
2021/10/20 04:10:06;;;;;;;4.78;4.57;;;19.30;69.30;;;;;;5019312;28;20041;-84
2021/10/20 04:12:32;;;;;;;4.93;4.72;;;19.30;69.30;;;;;;4999584;28;20475;-84
2021/10/20 04:14:58;;;;;;;5.38;4.97;;;19.30;69.30;;;;;;5000073;28;20041;-84
2021/10/20 04:17:24;;;;;;;5.22;4.93;;;19.20;69.30;;;;;;4975672;28;20025;-85
2021/10/20 04:19:50;;;;;;;5.93;5.53;;;19.20;69.30;;;;;;4992717;28;20038;-85
2021/10/20 04:22:16;;;;;;;5.03;4.82;;;19.10;69.40;;;;;;4993805;28;20053;-85
2021/10/20 04:24:42;;;;;;;4.45;4.25;;;19.20;69.60;;;;;;4996116;28;20038;-85
2021/10/20 04:27:08;;;;;;;5.20;4.90;;;19.10;69.60;;;;;;4972632;28;20061;-85
2021/10/20 04:29:34;;;;;;;5.40;5.00;;;19.10;69.80;;;;;;4986115;28;20027;-85
2021/10/20 04:32:00;;;;;;;5.10;4.80;;;19.10;69.90;;;;;;4991447;28;20038;-86
2021/10/20 04:34:27;;;;;;;5.38;5.00;;;19.00;70.00;;;;;;4992057;28;20130;-86
2021/10/20 04:36:53;;;;;;;5.25;4.80;;;19.00;70.10;;;;;;4996445;28;20042;-85
2021/10/20 04:39:19;;;;;;;4.78;4.38;;;19.00;70.20;;;;;;4992970;28;20380;-85
2021/10/20 04:41:45;;;;;;;5.00;4.70;;;18.90;70.20;;;;;;4993663;28;20041;-85
2021/10/20 04:44:11;;;;;;;4.78;4.47;;;18.90;70.40;;;;;;4995143;28;20487;-86
2021/10/20 04:46:37;;;;;;;6.75;5.10;;;18.90;70.60;;;;;;4988588;28;20398;-85
2021/10/20 04:49:03;;;;;;;5.00;4.70;;;18.80;70.60;;;;;;5031680;28;20030;-85
2021/10/20 04:51:29;;;;;;;5.38;5.07;;;18.80;70.70;;;;;;4998980;28;20030;-85
2021/10/20 04:53:55;;;;;;;4.43;4.22;;;18.80;70.80;;;;;;4999059;28;20023;-86
2021/10/20 04:56:22;;;;;;;5.22;4.85;;;18.70;70.90;;;;;;4998897;28;20022;-86
2021/10/20 04:58:48;;;;;;;5.05;4.65;;;18.70;71.00;;;;;;4996086;28;20030;-86
2021/10/20 05:01:14;;;;;;;4.13;3.92;;;18.70;71.10;;;;;;4996958;28;20035;-86
2021/10/20 05:03:40;;;;;;;4.43;4.22;;;18.70;71.20;;;;;;4999053;28;20034;-86
2021/10/20 05:06:06;;;;;;;4.65;4.35;;;18.70;71.30;;;;;;4999336;28;20048;-87
2021/10/20 05:08:32;;;;;;;5.13;4.70;;;18.60;71.30;;;;;;5007049;28;20031;-87
2021/10/20 05:10:58;;;;;;;4.20;3.90;;;18.60;71.40;;;;;;4994352;28;20041;-86
2021/10/20 05:13:25;;;;;;;3.58;3.40;;;18.60;71.50;;;;;;4995838;28;20045;-86
2021/10/20 05:15:51;;;;;;;4.47;4.28;;;18.60;71.60;;;;;;5014941;28;20157;-86
2021/10/20 05:18:17;;;;;;;6.55;4.68;;;18.60;71.70;;;;;;4998652;28;20494;-86
2021/10/20 05:20:43;;;;;;;4.00;3.80;;;18.50;71.70;;;;;;4997205;28;20038;-86
2021/10/20 05:23:10;;;;;;;4.40;4.20;;;18.50;71.90;;;;;;4976246;28;20316;-86
2021/10/20 05:25:38;;;;;;;4.78;4.32;;;18.50;71.90;;;;;;4993706;28;20494;-86
2021/10/20 05:28:05;;;;;;;4.80;4.53;;;18.50;72.10;;;;;;5031365;28;20361;-86
2021/10/20 05:30:31;;;;;;;4.72;4.32;;;18.50;72.20;;;;;;4981642;28;20042;-86
2021/10/20 05:32:57;;;;;;;4.32;4.03;;;18.40;72.20;;;;;;4997532;28;20037;-86
2021/10/20 05:35:23;;;;;;;4.07;3.88;;;18.40;72.20;;;;;;5007756;28;20041;-87
2021/10/20 05:37:50;;;;;;;4.18;3.97;;;18.40;72.30;;;;;;4992566;28;20107;-87
2021/10/20 05:40:20;;;;;;;4.55;4.20;;;18.40;72.40;;;;;;4996174;28;20041;-86
2021/10/20 05:42:46;;;;;;;5.20;4.82;;;18.40;72.50;;;;;;4998306;28;20388;-88
2021/10/20 05:45:13;;;;;;;3.95;3.75;;;18.40;72.50;;;;;;4986920;28;20495;-84
2021/10/20 05:47:39;;;;;;;4.20;4.00;;;18.40;72.60;;;;;;4996339;28;20030;-83
2021/10/20 05:50:06;;;;;;;4.68;4.38;;;18.40;72.70;;;;;;5004093;28;20391;-85
2021/10/20 05:52:32;;;;;;;4.32;4.13;;;18.30;72.70;;;;;;4998478;28;20030;-83
2021/10/20 05:54:58;;;;;;;4.90;4.15;;;18.30;72.80;;;;;;5022427;28;20029;-82
2021/10/20 05:57:26;;;;;;;4.38;4.18;;;18.30;72.90;;;;;;5000310;28;20037;-83
2021/10/20 05:59:52;;;;;;;4.10;3.90;;;18.30;73.00;;;;;;4984467;28;20039;-82
2021/10/20 06:02:19;;;;;;;3.80;3.60;;;18.30;73.00;;;;;;4991000;28;20035;-82
2021/10/20 06:04:45;;;;;;;4.50;4.30;;;18.30;73.00;;;;;;5006900;28;20038;-82
2021/10/20 06:07:11;;;;;;;4.55;4.35;;;18.30;73.10;;;;;;4996748;28;20042;-82
2021/10/20 06:09:37;;;;;;;4.30;4.00;;;18.30;73.10;;;;;;5012868;28;20037;-85
2021/10/20 06:12:04;;;;;;;4.45;4.15;;;18.30;73.10;;;;;;4980864;28;20026;-86
2021/10/20 06:14:30;;;;;;;4.32;3.75;;;18.30;73.20;;;;;;4992182;28;20503;-85
2021/10/20 06:16:56;;;;;;;3.85;3.65;;;18.30;73.20;;;;;;5005675;28;20042;-85
2021/10/20 06:19:22;;;;;;;4.35;4.05;;;18.40;73.30;;;;;;4994058;28;20038;-85
2021/10/20 06:21:49;;;;;;;4.65;4.30;;;18.40;73.70;;;;;;4992185;28;20061;-84
2021/10/20 06:24:15;;;;;;;4.40;4.10;;;18.40;73.40;;;;;;4998614;28;20026;-89
2021/10/20 06:26:41;;;;;;;4.30;4.00;;;18.40;73.40;;;;;;5001287;28;20042;-87
2021/10/20 06:29:07;;;;;;;4.15;3.95;;;18.40;73.40;;;;;;5005644;28;20033;-87
2021/10/20 06:31:33;;;;;;;4.03;3.83;;;18.40;73.50;;;;;;4991538;28;20030;-91
2021/10/20 06:33:59;;;;;;;4.13;3.92;;;18.40;73.50;;;;;;5011287;28;20034;-85
2021/10/20 06:36:30;;;;;;;3.85;3.65;;;18.40;73.60;;;;;;4987959;28;20050;-87
2021/10/20 06:38:57;;;;;;;3.92;3.72;;;18.40;73.60;;;;;;5025509;28;20483;-89
2021/10/20 06:41:23;;;;;;;4.40;4.10;;;18.40;73.60;;;;;;5020827;28;20031;-86
2021/10/20 06:43:49;;;;;;;6.07;4.10;;;18.40;73.60;;;;;;5007476;28;20375;-87
2021/10/20 06:46:15;;;;;;;4.30;4.10;;;18.40;73.70;;;;;;4974758;28;20043;-90
2021/10/20 06:48:41;;;;;;;4.15;3.90;;;18.40;73.80;;;;;;4984393;28;20053;-87
2021/10/20 06:51:09;;;;;;;3.75;3.55;;;18.40;73.80;;;;;;4973693;28;20049;-86
2021/10/20 06:53:36;;;;;;;4.20;4.00;;;18.40;73.80;;;;;;5004349;28;20060;-87
2021/10/20 06:56:02;;;;;;;4.38;4.07;;;18.40;73.80;;;;;;4998932;28;20026;-88
2021/10/20 06:58:28;;;;;;;4.45;4.05;;;18.40;73.90;;;;;;4995173;28;20487;-87
2021/10/20 07:00:54;;;;;;;3.90;3.70;;;18.40;73.90;;;;;;4998539;28;20380;-88
2021/10/20 07:03:21;;;;;;;4.10;3.90;;;18.40;74.00;;;;;;4985095;28;20435;-87
2021/10/20 07:05:47;;;;;;;5.75;3.75;;;18.40;74.00;;;;;;4989377;28;20414;-88
2021/10/20 07:08:13;;;;;;;4.10;3.90;;;18.40;74.00;;;;;;5001271;28;20042;-84
2021/10/20 07:10:39;;;;;;;3.67;3.50;;;18.40;74.10;;;;;;5023605;28;20052;-84
2021/10/20 07:13:05;;;;;;;4.05;3.85;;;18.40;74.10;;;;;;4974926;28;20030;-85
2021/10/20 07:15:31;;;;;;;4.10;3.90;;;18.40;74.20;;;;;;4978506;28;20031;-85
2021/10/20 07:17:57;;;;;;;4.13;3.92;;;18.40;74.20;;;;;;5013286;28;20060;-86
2021/10/20 07:20:24;;;;;;;5.03;4.72;;;18.40;74.20;;;;;;4976608;28;20045;-83
2021/10/20 07:22:50;;;;;;;4.90;4.53;;;18.40;74.20;;;;;;4996366;28;20026;-84
2021/10/20 07:25:19;;;;;;;3.90;3.70;;;18.40;74.30;;;;;;4992101;28;20035;-85
2021/10/20 07:27:46;;;;;;;19.85;4.50;;;18.50;74.30;;;;;;5000611;28;20041;-87
2021/10/20 07:30:12;;;;;;;4.10;3.90;;;18.50;74.30;;;;;;5015819;28;20022;-88
2021/10/20 07:32:41;;;;;;;4.07;3.88;;;18.50;74.30;;;;;;4996121;28;20037;-85
2021/10/20 07:35:08;;;;;;;5.88;3.92;;;18.50;74.30;;;;;;4983633;28;20030;-84
2021/10/20 07:37:34;;;;;;;3.60;3.40;;;18.60;74.40;;;;;;5002859;28;20022;-85
2021/10/20 07:40:01;;;;;;;4.10;3.90;;;18.60;74.40;;;;;;4988439;28;20045;-84
2021/10/20 07:42:27;;;;;;;4.30;4.10;;;18.60;74.40;;;;;;4999538;28;20464;-83
2021/10/20 07:44:53;;;;;;;3.88;3.67;;;18.60;74.30;;;;;;5000457;28;20193;-83
2021/10/20 07:47:20;;;;;;;3.53;3.35;;;18.60;74.30;;;;;;4996856;28;20047;-85
2021/10/20 07:49:47;;;;;;;4.35;4.15;;;18.60;74.40;;;;;;4993579;28;20032;-85
2021/10/20 07:52:13;;;;;;;4.10;3.90;;;18.60;74.40;;;;;;4993734;28;20025;-85
2021/10/20 07:54:39;;;;;;;4.18;3.97;;;18.60;74.40;;;;;;4998817;28;21192;-86
2021/10/20 07:57:06;;;;;;;4.07;3.88;;;18.70;74.50;;;;;;4985619;28;20468;-84
2021/10/20 07:59:32;;;;;;;4.65;4.45;;;18.70;74.50;;;;;;5020053;28;20487;-87
2021/10/20 08:01:58;;;;;;;4.13;3.92;;;18.70;74.50;;;;;;4980794;28;20030;-86
2021/10/20 08:04:24;;;;;;;4.25;4.05;;;18.70;74.60;;;;;;5010418;28;20026;-87
2021/10/20 08:06:50;;;;;;;4.47;4.13;;;18.70;74.60;;;;;;4992680;28;20045;-86
2021/10/20 08:09:16;;;;;;;4.95;4.55;;;18.70;74.60;;;;;;5003281;28;20022;-87
2021/10/20 08:11:42;;;;;;;4.88;4.57;;;18.70;74.60;;;;;;5022838;28;20041;-86
2021/10/20 08:14:08;;;;;;;4.38;4.18;;;18.70;74.60;;;;;;4989759;28;20018;-88
2021/10/20 08:16:34;;;;;;;4.40;4.20;;;18.70;74.60;;;;;;4991279;28;20046;-86
2021/10/20 08:19:00;;;;;;;7.13;4.10;;;18.80;74.70;;;;;;4992933;28;20026;-84
2021/10/20 08:21:27;;;;;;;4.53;4.25;;;18.80;74.70;;;;;;4972036;28;20038;-86
2021/10/20 08:23:53;;;;;;;4.38;4.18;;;18.80;74.60;;;;;;4997609;28;20045;-91
2021/10/20 08:26:19;;;;;;;3.72;3.53;;;18.80;74.60;;;;;;4978106;28;20050;-88
2021/10/20 08:28:45;;;;;;;7.18;4.35;;;18.80;74.70;;;;;;4991674;28;20503;-86
2021/10/20 08:31:12;;;;;;;4.35;4.05;;;18.90;74.70;;;;;;4992817;28;20053;-85
2021/10/20 08:33:38;;;;;;;3.70;3.50;;;18.90;74.70;;;;;;4985654;28;20030;-85
2021/10/20 08:36:04;;;;;;;4.95;4.63;;;18.90;74.70;;;;;;5009000;28;20497;-84
2021/10/20 08:38:30;;;;;;;4.15;3.95;;;18.90;74.70;;;;;;4990094;28;20030;-84
2021/10/20 08:40:58;;;;;;;4.50;4.30;;;18.90;74.70;;;;;;5001057;28;20050;-86
2021/10/20 08:43:24;;;;;;;3.63;3.42;;;18.90;74.70;;;;;;4974974;28;20046;-87
2021/10/20 08:45:50;;;;;;;3.58;3.38;;;18.90;74.70;;;;;;5002674;28;20038;-85
2021/10/20 08:48:24;;;;;;;3.90;3.70;;;19.00;74.80;;;;;;4995775;28;20388;-88
2021/10/20 08:50:55;;;;;;;3.80;3.60;;;19.00;74.80;;;;;;5011419;28;20213;-89
2021/10/20 08:53:21;;;;;;;6.13;4.85;;;19.00;74.80;;;;;;5003358;28;20443;-86
2021/10/20 08:55:48;;;;;;;4.45;4.25;;;19.00;74.70;;;;;;5017160;28;20034;-86
2021/10/20 08:58:14;;;;;;;4.90;4.40;;;19.10;74.70;;;;;;4973566;28;20042;-85
2021/10/20 09:00:40;;;;;;;3.92;3.72;;;19.20;75.50;;;;;;4980453;28;20050;-91
2021/10/20 09:03:06;;;;;;;4.45;4.15;;;19.20;74.60;;;;;;4988479;28;20027;-91
2021/10/20 09:05:32;;;;;;;4.50;4.20;;;19.30;74.60;;;;;;4990449;28;20055;-89
2021/10/20 09:07:58;;;;;;;4.30;4.10;;;19.30;74.60;;;;;;4991103;28;20034;-90
2021/10/20 09:10:30;;;;;;;4.32;4.13;;;19.40;74.60;;;;;;4992651;28;20369;-92
2021/10/20 09:12:56;;;;;;;4.15;3.95;;;19.40;74.50;;;;;;4979196;28;20035;-90
2021/10/20 09:15:28;;;;;;;4.57;4.20;;;19.40;74.50;;;;;;4988198;28;20042;-83
2021/10/20 09:17:59;;;;;;;3.80;3.60;;;19.40;74.50;;;;;;4974527;28;20035;-84
2021/10/20 09:20:31;;;;;;;;;;;19.50;74.50;;;;;;5018794;28;20023;-85
2021/10/20 09:23:15;;;;;;;5.10;4.70;;;19.60;74.50;;;;;;4989223;28;19913;-84
2021/10/20 09:25:52;;;;;;;4.90;4.60;;;19.60;74.40;;;;;;5007766;28;20026;-84
2021/10/20 09:28:34;;;;;;;4.47;4.22;;;19.70;74.40;;;;;;5003468;28;20045;-86
2021/10/20 09:31:02;;;;;;;4.38;4.07;;;19.70;74.40;;;;;;5009351;28;20046;-84
2021/10/20 09:33:38;;;;;;;4.43;4.13;;;19.80;74.20;;;;;;5001466;28;20407;-87
2021/10/20 09:36:09;;;;;;;4.70;4.43;;;19.90;74.10;;;;;;4978688;28;20038;-84
2021/10/20 09:38:51;;;;;;;10.18;5.18;;;20.00;73.90;;;;;;4997973;28;20034;-87
2021/10/20 09:41:18;;;;;;;4.63;4.40;;;20.10;73.90;;;;;;4993535;28;20049;-87
2021/10/20 09:43:54;;;;;;;4.82;4.55;;;20.20;73.80;;;;;;4996219;28;20041;-84
2021/10/20 09:46:31;;;;;;;5.22;4.80;;;20.30;73.80;;;;;;4979662;28;20049;-83
2021/10/20 09:49:01;;;;;;;5.13;4.93;;;20.30;73.70;;;;;;5030148;28;20042;-79
2021/10/20 09:51:27;;;;;;;5.40;5.10;;;20.40;74.10;;;;;;4997754;28;20042;-80
2021/10/20 09:53:53;;;;;;;4.93;4.53;;;20.50;73.60;;;;;;4996841;28;20521;-80
2021/10/20 09:56:28;;;;;;;4.20;4.00;;;20.60;73.40;;;;;;4990209;28;20045;-88
2021/10/20 09:58:55;;;;;;;5.05;4.82;;;20.60;73.20;;;;;;5001226;28;20026;-81
2021/10/20 10:01:22;;;;;;;4.90;4.50;;;20.60;73.10;;;;;;4994540;28;20053;-82
2021/10/20 10:03:48;;;;;;;4.20;4.00;;;20.60;73.10;;;;;;4998002;28;20038;-87
2021/10/20 10:06:15;;;;;;;4.07;3.88;;;20.60;73.20;;;;;;4999718;28;20044;-88
2021/10/20 10:08:41;;;;;;;4.50;4.30;;;20.50;73.20;;;;;;4997984;28;20041;-89
2021/10/20 10:11:08;;;;;;;4.97;4.68;;;20.60;74.10;;;;;;4987823;28;20042;-89
2021/10/20 10:13:39;;;;;;;4.45;4.25;;;20.60;73.30;;;;;;5005740;28;20046;-89
2021/10/20 10:16:05;;;;;;;4.32;4.13;;;20.60;73.20;;;;;;4993647;28;20053;-87
2021/10/20 10:18:38;;;;;;;7.88;4.53;;;20.60;73.90;;;;;;4979514;28;20376;-90
2021/10/20 10:21:34;;;;;;;3.95;3.75;;;20.60;73.20;;;;;;4975532;28;20043;-88
2021/10/20 10:24:03;;;;;;;3.92;3.72;;;20.50;73.20;;;;;;4993549;28;20450;-89
2021/10/20 10:26:33;;;;;;;4.22;4.03;;;20.50;73.10;;;;;;4991644;28;20491;-92
2021/10/20 10:29:12;;;;;;;4.53;4.25;;;20.50;73.20;;;;;;5010966;28;20029;-86
2021/10/20 10:31:43;;;;;;;4.10;3.90;;;20.50;73.20;;;;;;4967630;28;20495;-89
2021/10/20 10:34:19;;;;;;;4.20;4.00;;;20.50;73.20;;;;;;5010150;28;20030;-88
2021/10/20 10:36:50;;;;;;;4.03;3.83;;;20.60;73.20;;;;;;4997024;28;20042;-88
2021/10/20 10:39:16;;;;;;;4.07;3.88;;;20.60;73.80;;;;;;4991520;28;20479;-86
2021/10/20 10:41:45;;;;;;;4.50;4.20;;;20.70;72.90;;;;;;4995156;28;20034;-87
2021/10/20 10:44:13;;;;;;;5.07;4.82;;;20.80;72.60;;;;;;5011090;28;20066;-88
2021/10/20 10:46:46;;;;;;;6.07;5.63;;;21.00;72.40;;;;;;4960601;28;20046;-86
2021/10/20 10:49:25;;;;;;;8.73;4.88;;;21.20;72.10;;;;;;5021373;28;20065;-87
2021/10/20 10:52:04;;;;;;;5.20;5.00;;;21.40;71.70;;;;;;4997099;28;20033;-85
2021/10/20 10:54:37;;;;;;;4.95;4.75;;;21.50;71.40;;;;;;4991607;28;20038;-85
2021/10/20 10:57:14;;;;;;;5.70;5.40;;;21.60;71.20;;;;;;5020137;28;20030;-85
2021/10/20 11:00:18;;;;;;;5.00;4.80;;;21.60;71.10;;;;;;5006095;28;20037;-86
2021/10/20 11:02:51;;;;;;;5.20;5.00;;;21.70;71.10;;;;;;4994359;28;20057;-92
2021/10/20 11:05:31;;;;;;;4.72;4.53;;;21.60;71.00;;;;;;5025239;28;20023;-91
2021/10/20 11:08:11;;;;;;;5.70;5.15;;;21.50;71.00;;;;;;5001643;28;20038;-91
2021/10/20 11:10:38;;;;;;;5.07;4.88;;;21.50;71.10;;;;;;4988051;28;20022;-91
2021/10/20 11:13:05;;;;;;;4.32;4.13;;;21.40;71.20;;;;;;5011868;28;20046;-89
2021/10/20 11:15:31;;;;;;;9.38;5.28;;;21.30;71.30;;;;;;4993607;28;20070;-89
2021/10/20 11:17:58;;;;;;;5.45;5.22;;;21.30;71.40;;;;;;5002134;28;20392;-89
2021/10/20 11:20:29;;;;;;;4.85;4.65;;;21.30;71.40;;;;;;4982199;28;20045;-89
2021/10/20 11:23:01;;;;;;;6.43;5.90;;;21.20;71.40;;;;;;4992436;28;20105;-91
2021/10/20 11:25:27;;;;;;;4.75;4.55;;;21.20;71.50;;;;;;4996896;28;20038;-93
2021/10/20 11:27:55;;;;;;;5.53;5.13;;;21.20;71.40;;;;;;5000263;28;20042;-91
2021/10/20 11:30:26;;;;;;;4.97;4.68;;;21.10;71.40;;;;;;4972139;28;20050;-90
2021/10/20 11:32:52;;;;;;;5.10;4.90;;;21.10;71.30;;;;;;4985413;28;20049;-91
2021/10/20 11:35:19;;;;;;;4.78;4.57;;;21.10;71.30;;;;;;5019593;28;20496;-91
2021/10/20 11:38:03;;;;;;;5.97;5.57;;;21.00;71.30;;;;;;5007290;28;20042;-93
2021/10/20 11:40:36;;;;;;;4.68;4.47;;;21.00;71.40;;;;;;4991069;28;20038;-88
2021/10/20 11:43:02;;;;;;;4.75;4.55;;;20.90;71.30;;;;;;4971656;28;20034;-89
2021/10/20 11:45:31;;;;;;;4.50;4.30;;;20.90;71.30;;;;;;5002315;28;20049;-90
2021/10/20 11:48:01;;;;;;;4.45;4.25;;;20.90;71.30;;;;;;4987428;28;20042;-89
2021/10/20 11:50:28;;;;;;;5.15;4.95;;;20.80;71.30;;;;;;5000975;28;20038;-89
2021/10/20 11:53:06;;;;;;;4.88;4.68;;;20.80;71.30;;;;;;5022495;28;20399;-89
2021/10/20 11:55:32;;;;;;;4.60;4.40;;;20.80;71.30;;;;;;5008109;28;20494;-89
2021/10/20 11:57:58;;;;;;;4.75;4.55;;;20.80;71.20;;;;;;4970960;28;20038;-90
2021/10/20 12:00:24;;;;;;;5.78;5.32;;;20.80;71.20;;;;;;4987153;28;20081;-89
2021/10/20 12:02:51;;;;;;;5.22;5.00;;;20.80;71.20;;;;;;4990513;28;20033;-90
2021/10/20 12:05:17;;;;;;;4.78;4.57;;;20.80;71.20;;;;;;5019622;28;20380;-89
2021/10/20 12:07:46;;;;;;;5.00;4.80;;;21.00;71.00;;;;;;5007189;28;20046;-89
2021/10/20 12:10:12;;;;;;;5.20;5.00;;;21.10;70.60;;;;;;4987934;28;20022;-88
2021/10/20 12:12:38;;;;;;;5.15;4.95;;;21.20;70.30;;;;;;4987613;28;20038;-88
2021/10/20 12:15:04;;;;;;;5.10;4.85;;;21.30;70.30;;;;;;5019321;28;20025;-89
2021/10/20 12:17:31;;;;;;;5.47;5.18;;;21.30;70.20;;;;;;4985296;28;20050;-88
2021/10/20 12:19:59;;;;;;;5.53;5.03;;;21.30;70.10;;;;;;5019253;28;20027;-89
2021/10/20 12:22:26;;;;;;;4.90;4.70;;;21.40;70.00;;;;;;4989247;28;20042;-88
2021/10/20 12:24:54;;;;;;;5.38;4.95;;;21.40;69.90;;;;;;4987059;28;20033;-87
2021/10/20 12:27:21;;;;;;;10.68;5.65;;;21.40;69.70;;;;;;5009673;28;20507;-88
2021/10/20 12:29:49;;;;;;;4.80;4.60;;;21.40;69.70;;;;;;4985264;28;20027;-88
2021/10/20 12:32:19;;;;;;;6.50;6.20;;;21.50;69.70;;;;;;4983908;28;20035;-87
2021/10/20 12:35:08;;;;;;;5.57;5.28;;;21.50;69.70;;;;;;5000223;28;20392;-88
2021/10/20 12:37:45;;;;;;;5.05;4.85;;;21.50;69.70;;;;;;4974993;28;20049;-90
2021/10/20 12:40:19;;;;;;;6.60;6.00;;;21.40;69.50;;;;;;4987856;28;20042;-88
2021/10/20 12:42:48;;;;;;;5.72;5.43;;;21.40;69.50;;;;;;5018504;28;20034;-89
2021/10/20 12:45:14;;;;;;;6.45;6.15;;;21.40;69.50;;;;;;4982422;28;20023;-90
2021/10/20 12:47:42;;;;;;;6.05;5.75;;;21.40;69.40;;;;;;5018702;28;20042;-87
2021/10/20 12:50:09;;;;;;;6.35;6.05;;;21.40;69.30;;;;;;4986175;28;20480;-89